Ohyamamaru — JG5507 — position and weather

sailwx.info

Track history (hours):
 
Tides and Currents Weather Stations Pressure Air Temp Water Temp Dewpoint Dewpoint Depression Visibility Wind Speed Wind Dir Waves Ship Positions

Ohyamamaru

Last reported at 2014-Sep-30 14:33 UTC. Time now 2014-Oct-01 06:11 UTC.
Position N 35°38' E 139°46'.

Length 36 m; draft 4.4 m.

Type: Tug. MMSI: 431001114.

Date/timePositionNaut miles runAvg speedWind from/ knotsBaromVisibWave heightAir tempDewpointWater temp
2014-Sep-30 14:33N 35°38' E 139°46'2 1.8
2014-Sep-30 13:17N 35°36' E 139°47'1 0.3
2014-Sep-30 11:06N 35°36' E 139°46'3 5.4
2014-Sep-30 10:31N 35°34' E 139°49'3 2.7
2014-Sep-30 09:33N 35°36' E 139°47'0 0.1
2014-Sep-30 08:14N 35°36' E 139°47'1 0.2
2014-Sep-30 03:15N 35°37' E 139°47'3 4.6
2014-Sep-30 02:33N 35°34' E 139°49'5 0.1
2014-Sep-28 09:33N 35°38' E 139°46'5 4.7
2014-Sep-28 08:31N 35°34' E 139°49'2 1.1
2014-Sep-28 06:30N 35°36' E 139°48'2 0.7
2014-Sep-28 03:12N 35°38' E 139°46'3 2.9
2014-Sep-28 02:11N 35°37' E 139°49'3 1.6
2014-Sep-28 00:27N 35°35' E 139°48'4 4.1
2014-Sep-27 23:30N 35°38' E 139°46'1 0.1
2014-Sep-27 01:33N 35°37' E 139°46'1 0.0
2014-Sep-26 13:31N 35°37' E 139°47'1 0.2
2014-Sep-26 09:19N 35°36' E 139°47'2 2.1
2014-Sep-26 08:31N 35°35' E 139°48'3 2.7
2014-Sep-26 07:21N 35°37' E 139°46'1 0.1
2014-Sep-26 00:23N 35°38' E 139°46'4 5.4
2014-Sep-25 23:33N 35°34' E 139°49'3 0.2
2014-Sep-25 07:31N 35°37' E 139°46'3 3.5
2014-Sep-25 06:33N 35°34' E 139°49'3 0.7
2014-Sep-25 02:29N 35°36' E 139°47'1 0.7
2014-Sep-25 01:20N 35°37' E 139°46'2 0.1
2014-Sep-24 11:28N 35°37' E 139°48'2 1.5
2014-Sep-24 10:06N 35°38' E 139°46'  
2014-Sep-22 01:33N 35°35' E 139°53'6 2.0
2014-Sep-21 22:29N 35°38' E 139°46'4 4.4
2014-Sep-21 21:32N 35°34' E 139°48'4 0.3
2014-Sep-21 10:14N 35°38' E 139°46'3 2.9
2014-Sep-21 09:13N 35°35' E 139°48'1 0.4
2014-Sep-21 06:31N 35°34' E 139°49'  
Track history (hours):
 
Tides and Currents Weather Stations Pressure Air Temp Water Temp Dewpoint Dewpoint Depression Visibility Wind Speed Wind Dir Waves Ship Positions

Ohyamamaru

Last reported at 2014-Sep-30 14:33 UTC. Time now 2014-Oct-01 06:11 UTC.
Position N 35°38' E 139°46'.

Length 36 m; draft 4.4 m.

Type: Tug. MMSI: 431001114.

Date/timePositionNaut miles runAvg speedWind from/ knotsBaromVisibWave heightAir tempDewpointWater temp
2014-Sep-30 14:33N 35°38' E 139°46'2 1.8
2014-Sep-30 13:17N 35°36' E 139°47'1 0.3
2014-Sep-30 11:06N 35°36' E 139°46'3 5.4
2014-Sep-30 10:31N 35°34' E 139°49'3 2.7
2014-Sep-30 09:33N 35°36' E 139°47'0 0.1
2014-Sep-30 08:14N 35°36' E 139°47'1 0.2
2014-Sep-30 03:15N 35°37' E 139°47'3 4.6
2014-Sep-30 02:33N 35°34' E 139°49'5 0.1
2014-Sep-28 09:33N 35°38' E 139°46'5 4.7
2014-Sep-28 08:31N 35°34' E 139°49'2 1.1
2014-Sep-28 06:30N 35°36' E 139°48'2 0.7
2014-Sep-28 03:12N 35°38' E 139°46'3 2.9
2014-Sep-28 02:11N 35°37' E 139°49'3 1.6
2014-Sep-28 00:27N 35°35' E 139°48'4 4.1
2014-Sep-27 23:30N 35°38' E 139°46'1 0.1
2014-Sep-27 01:33N 35°37' E 139°46'1 0.0
2014-Sep-26 13:31N 35°37' E 139°47'1 0.2
2014-Sep-26 09:19N 35°36' E 139°47'2 2.1
2014-Sep-26 08:31N 35°35' E 139°48'3 2.7
2014-Sep-26 07:21N 35°37' E 139°46'1 0.1
2014-Sep-26 00:23N 35°38' E 139°46'4 5.4
2014-Sep-25 23:33N 35°34' E 139°49'3 0.2
2014-Sep-25 07:31N 35°37' E 139°46'3 3.5
2014-Sep-25 06:33N 35°34' E 139°49'3 0.7
2014-Sep-25 02:29N 35°36' E 139°47'1 0.7
2014-Sep-25 01:20N 35°37' E 139°46'2 0.1
2014-Sep-24 11:28N 35°37' E 139°48'2 1.5
2014-Sep-24 10:06N 35°38' E 139°46'  
2014-Sep-22 01:33N 35°35' E 139°53'6 2.0
2014-Sep-21 22:29N 35°38' E 139°46'4 4.4
2014-Sep-21 21:32N 35°34' E 139°48'4 0.3
2014-Sep-21 10:14N 35°38' E 139°46'3 2.9
2014-Sep-21 09:13N 35°35' E 139°48'1 0.4
2014-Sep-21 06:31N 35°34' E 139°49'  

Dump ship's entire track history